Time,TemperatureF,DewpointF,PressureIn,WindDirection,WindDirectionDegrees,WindSpeedMPH,WindSpeedGustMPH,Humidity,HourlyPrecipIn,Conditions,Clouds,dailyrainin,SoftwareType,DateUTC
2013-10-07 00:01:00,52.5,44.8,29.80,SSW,196,4.0,6.0,75,0.00,,,0.15,meteohub,2013-10-07 05:01:00,
2013-10-07 00:06:00,52.5,44.8,29.80,SW,223,3.0,7.0,75,0.00,,,0.00,meteohub,2013-10-07 05:06:00,
2013-10-07 00:11:00,52.7,44.6,29.80,WSW,240,6.0,8.0,74,0.00,,,0.00,meteohub,2013-10-07 05:11:00,
2013-10-07 00:16:00,52.9,45.1,29.80,SSW,192,7.0,8.0,75,0.00,,,0.00,meteohub,2013-10-07 05:16:00,
2013-10-07 00:21:00,53.1,45.3,29.80,WSW,244,8.0,9.0,75,0.00,,,0.00,meteohub,2013-10-07 05:21:00,
2013-10-07 00:26:00,52.7,45.3,29.81,SW,236,5.0,12.0,76,0.00,,,0.00,meteohub,2013-10-07 05:26:00,
2013-10-07 00:31:00,52.3,45.7,29.81,WSW,250,6.0,12.0,78,0.00,,,0.00,meteohub,2013-10-07 05:31:00,
2013-10-07 00:36:00,52.2,45.9,29.80,SSW,198,3.0,12.0,79,0.00,,,0.00,meteohub,2013-10-07 05:36:00,
2013-10-07 00:41:00,52.0,46.0,29.80,WSW,246,3.0,8.0,80,0.00,,,0.00,meteohub,2013-10-07 05:41:00,
2013-10-07 00:46:00,51.6,46.2,29.80,SW,227,4.0,9.0,82,0.00,,,0.00,meteohub,2013-10-07 05:46:00,
2013-10-07 00:51:00,51.4,46.4,29.80,SW,218,2.0,9.0,83,0.00,,,0.00,meteohub,2013-10-07 05:51:00,
2013-10-07 00:56:00,51.3,46.6,29.80,SW,215,1.0,8.0,84,0.00,,,0.00,meteohub,2013-10-07 05:56:00,
2013-10-07 01:01:00,51.1,46.8,29.80,South,178,4.0,8.0,85,0.00,,,0.00,meteohub,2013-10-07 06:01:00,
2013-10-07 01:06:00,51.1,46.8,29.80,SSW,209,0.0,7.0,85,0.01,,,0.01,meteohub,2013-10-07 06:06:00,
2013-10-07 01:11:00,50.7,46.4,29.80,WSW,244,1.0,7.0,85,0.01,,,0.01,meteohub,2013-10-07 06:11:00,
2013-10-07 01:17:00,50.7,46.8,29.80,SW,219,1.0,7.0,86,0.01,,,0.01,meteohub,2013-10-07 06:17:00,
2013-10-07 01:22:00,50.7,46.8,29.80,SW,230,0.0,7.0,86,0.01,,,0.01,meteohub,2013-10-07 06:22:00,
2013-10-07 01:27:00,50.4,46.6,29.80,WSW,253,0.0,7.0,87,0.01,,,0.01,meteohub,2013-10-07 06:27:00,
2013-10-07 01:32:00,49.8,46.0,29.81,WSW,254,1.0,5.0,87,0.01,,,0.01,meteohub,2013-10-07 06:32:00,
2013-10-07 01:37:00,50.0,46.6,29.80,SW,221,3.0,4.0,88,0.01,,,0.01,meteohub,2013-10-07 06:37:00,
2013-10-07 01:42:00,50.4,46.9,29.80,WSW,241,1.0,4.0,88,0.02,,,0.02,meteohub,2013-10-07 06:42:00,
2013-10-07 01:47:00,50.7,47.3,29.80,WSW,250,5.0,6.0,88,0.02,,,0.02,meteohub,2013-10-07 06:47:00,
2013-10-07 01:52:00,50.4,46.6,29.81,WSW,250,2.0,6.0,87,0.02,,,0.02,meteohub,2013-10-07 06:52:00,
2013-10-07 01:57:00,49.8,46.0,29.81,West,274,0.0,6.0,87,0.03,,,0.03,meteohub,2013-10-07 06:57:00,
2013-10-07 02:02:00,49.6,46.2,29.81,NW,315,5.0,5.0,88,0.04,,,0.04,meteohub,2013-10-07 07:02:00,
2013-10-07 02:07:00,48.0,44.4,29.81,West,279,4.0,8.0,87,0.03,,,0.04,meteohub,2013-10-07 07:07:00,
2013-10-07 02:12:00,47.5,44.4,29.81,NW,320,6.0,10.0,89,0.04,,,0.05,meteohub,2013-10-07 07:12:00,
2013-10-07 02:17:00,46.9,44.2,29.81,NW,320,6.0,11.0,90,0.04,,,0.05,meteohub,2013-10-07 07:17:00,
2013-10-07 02:22:00,46.9,44.4,29.81,NNW,329,5.0,11.0,91,0.05,,,0.06,meteohub,2013-10-07 07:22:00,
2013-10-07 02:27:00,46.8,44.6,29.81,NW,314,2.0,11.0,92,0.05,,,0.06,meteohub,2013-10-07 07:27:00,
2013-10-07 02:32:00,46.8,44.6,29.81,WNW,297,5.0,7.0,92,0.06,,,0.07,meteohub,2013-10-07 07:32:00,
2013-10-07 02:37:00,46.8,44.6,29.80,NW,317,0.0,7.0,92,0.05,,,0.07,meteohub,2013-10-07 07:37:00,
2013-10-07 02:42:00,46.8,44.6,29.80,NW,325,2.0,7.0,92,0.05,,,0.07,meteohub,2013-10-07 07:42:00,
2013-10-07 02:47:00,46.8,44.6,29.81,NW,306,1.0,7.0,92,0.05,,,0.07,meteohub,2013-10-07 07:47:00,
2013-10-07 02:52:00,46.9,44.8,29.81,NW,306,2.0,5.0,92,0.04,,,0.07,meteohub,2013-10-07 07:52:00,
2013-10-07 02:57:00,46.9,45.0,29.81,NW,315,2.0,6.0,93,0.04,,,0.07,meteohub,2013-10-07 07:57:00,
2013-10-07 03:02:00,46.9,44.8,29.81,NW,321,3.0,6.0,92,0.03,,,0.07,meteohub,2013-10-07 08:02:00,
2013-10-07 03:07:00,46.9,44.8,29.81,NW,318,5.0,8.0,92,0.02,,,0.07,meteohub,2013-10-07 08:07:00,
2013-10-07 03:12:00,46.8,44.6,29.81,NW,314,2.0,8.0,92,0.02,,,0.07,meteohub,2013-10-07 08:12:00,
2013-10-07 03:17:00,46.8,44.2,29.81,NW,317,3.0,8.0,91,0.02,,,0.07,meteohub,2013-10-07 08:17:00,
2013-10-07 03:22:00,46.9,44.4,29.82,WNW,294,4.0,8.0,91,0.01,,,0.07,meteohub,2013-10-07 08:22:00,
2013-10-07 03:27:00,46.8,44.2,29.82,NW,324,3.0,8.0,91,0.01,,,0.07,meteohub,2013-10-07 08:27:00,
2013-10-07 03:32:00,46.9,44.4,29.82,WNW,298,5.0,8.0,91,0.00,,,0.07,meteohub,2013-10-07 08:32:00,
2013-10-07 03:37:00,46.9,44.8,29.82,NW,315,1.0,7.0,92,0.00,,,0.07,meteohub,2013-10-07 08:37:00,
2013-10-07 03:42:00,46.9,44.4,29.82,NW,315,5.0,7.0,91,0.00,,,0.07,meteohub,2013-10-07 08:42:00,
2013-10-07 03:47:00,46.8,44.2,29.82,NW,304,1.0,7.0,91,0.00,,,0.07,meteohub,2013-10-07 08:47:00,
2013-10-07 03:52:00,46.8,44.6,29.83,WNW,300,3.0,11.0,92,0.00,,,0.07,meteohub,2013-10-07 08:52:00,
2013-10-07 03:57:00,46.9,44.8,29.83,NNW,332,4.0,11.0,92,0.00,,,0.07,meteohub,2013-10-07 08:57:00,
2013-10-07 04:02:00,46.9,44.4,29.83,NW,310,2.0,10.0,91,0.00,,,0.07,meteohub,2013-10-07 09:02:00,
2013-10-07 04:07:00,46.9,44.4,29.84,NW,315,1.0,10.0,91,0.00,,,0.07,meteohub,2013-10-07 09:07:00,
2013-10-07 04:12:00,46.8,44.2,29.84,NW,313,5.0,10.0,91,0.00,,,0.07,meteohub,2013-10-07 09:12:00,
2013-10-07 04:17:00,46.8,44.2,29.85,NW,314,2.0,8.0,91,0.00,,,0.07,meteohub,2013-10-07 09:17:00,
2013-10-07 04:22:00,46.9,44.4,29.85,WNW,292,4.0,8.0,91,0.00,,,0.07,meteohub,2013-10-07 09:22:00,
2013-10-07 04:27:00,47.3,44.8,29.85,NW,323,5.0,8.0,91,0.00,,,0.07,meteohub,2013-10-07 09:27:00,
2013-10-07 04:32:00,47.7,45.0,29.85,SW,214,4.0,8.0,90,0.00,,,0.07,meteohub,2013-10-07 09:32:00,
2013-10-07 04:37:00,47.8,45.0,29.85,WSW,252,6.0,8.0,90,0.00,,,0.07,meteohub,2013-10-07 09:37:00,
2013-10-07 04:42:00,48.0,44.6,29.85,West,269,4.0,8.0,88,0.00,,,0.07,meteohub,2013-10-07 09:42:00,
2013-10-07 04:47:00,48.4,45.3,29.85,WSW,254,1.0,9.0,89,0.00,,,0.07,meteohub,2013-10-07 09:47:00,
2013-10-07 04:52:00,48.4,44.4,29.85,NW,307,0.0,9.0,86,0.00,,,0.07,meteohub,2013-10-07 09:52:00,
2013-10-07 04:57:00,48.6,44.8,29.85,WNW,298,5.0,9.0,87,0.00,,,0.07,meteohub,2013-10-07 09:57:00,
2013-10-07 05:02:00,48.4,44.8,29.85,WSW,258,1.0,9.0,87,0.00,,,0.07,meteohub,2013-10-07 10:02:00,
2013-10-07 05:07:00,48.0,44.1,29.85,WNW,297,1.0,8.0,86,0.00,,,0.07,meteohub,2013-10-07 10:07:00,
2013-10-07 05:12:00,48.0,44.4,29.86,WNW,292,1.0,6.0,87,0.00,,,0.07,meteohub,2013-10-07 10:12:00,
2013-10-07 05:17:00,48.0,44.6,29.86,WSW,252,0.0,6.0,88,0.00,,,0.07,meteohub,2013-10-07 10:17:00,
2013-10-07 05:22:00,47.8,44.2,29.86,WSW,243,6.0,7.0,87,0.00,,,0.07,meteohub,2013-10-07 10:22:00,
2013-10-07 05:27:00,47.8,44.2,29.87,WNW,282,0.0,7.0,87,0.00,,,0.07,meteohub,2013-10-07 10:27:00,
2013-10-07 05:32:00,47.7,44.2,29.87,SW,229,2.0,7.0,88,0.00,,,0.07,meteohub,2013-10-07 10:32:00,
2013-10-07 05:37:00,47.8,44.2,29.87,West,262,1.0,7.0,87,0.00,,,0.07,meteohub,2013-10-07 10:37:00,
2013-10-07 05:42:00,47.5,43.9,29.87,SW,234,0.0,8.0,87,0.00,,,0.07,meteohub,2013-10-07 10:42:00,
2013-10-07 05:47:00,47.1,43.7,29.87,WSW,257,4.0,9.0,88,0.00,,,0.07,meteohub,2013-10-07 10:47:00,
2013-10-07 05:52:00,46.9,43.9,29.87,WSW,246,5.0,9.0,89,0.00,,,0.07,meteohub,2013-10-07 10:52:00,
2013-10-07 05:57:00,46.9,43.9,29.88,NW,312,5.0,10.0,89,0.00,,,0.07,meteohub,2013-10-07 10:57:00,
2013-10-07 06:02:00,46.8,44.1,29.88,SW,234,1.0,10.0,90,0.00,,,0.07,meteohub,2013-10-07 11:02:00,
2013-10-07 06:07:00,46.9,43.9,29.88,WSW,246,0.0,10.0,89,0.00,,,0.07,meteohub,2013-10-07 11:07:00,
2013-10-07 06:12:00,47.1,44.1,29.88,NW,311,0.0,9.0,89,0.00,,,0.07,meteohub,2013-10-07 11:12:00,
2013-10-07 06:17:00,47.3,44.2,29.88,NNW,336,2.0,9.0,89,0.00,,,0.07,meteohub,2013-10-07 11:17:00,
2013-10-07 06:22:00,47.3,43.9,29.88,SW,233,2.0,11.0,88,0.00,,,0.07,meteohub,2013-10-07 11:22:00,
2013-10-07 06:27:00,47.7,44.2,29.88,NW,311,0.0,11.0,88,0.00,,,0.07,meteohub,2013-10-07 11:27:00,
2013-10-07 06:32:00,47.5,44.1,29.88,WSW,245,1.0,10.0,88,0.00,,,0.07,meteohub,2013-10-07 11:32:00,
2013-10-07 06:37:00,47.5,44.1,29.88,SW,232,6.0,9.0,88,0.00,,,0.07,meteohub,2013-10-07 11:37:00,
2013-10-07 06:42:00,48.0,44.4,29.88,WSW,252,1.0,8.0,87,0.00,,,0.07,meteohub,2013-10-07 11:42:00,
2013-10-07 06:47:00,48.0,44.4,29.89,WSW,244,1.0,8.0,87,0.00,,,0.07,meteohub,2013-10-07 11:47:00,
2013-10-07 06:52:00,48.0,44.4,29.89,West,263,2.0,8.0,87,0.00,,,0.07,meteohub,2013-10-07 11:52:00,
2013-10-07 06:57:00,48.0,44.1,29.89,West,271,2.0,7.0,86,0.00,,,0.07,meteohub,2013-10-07 11:57:00,
2013-10-07 07:02:00,47.7,44.1,29.90,WSW,256,1.0,7.0,87,0.00,,,0.07,meteohub,2013-10-07 12:02:00,
2013-10-07 07:07:00,47.7,44.1,29.90,WSW,240,0.0,8.0,87,0.00,,,0.07,meteohub,2013-10-07 12:07:00,
2013-10-07 07:12:00,47.7,44.2,29.90,West,261,2.0,8.0,88,0.00,,,0.07,meteohub,2013-10-07 12:12:00,
2013-10-07 07:17:00,47.8,43.9,29.91,SW,228,0.0,8.0,86,0.00,,,0.07,meteohub,2013-10-07 12:17:00,
2013-10-07 07:22:00,47.7,44.1,29.91,WSW,242,2.0,7.0,87,0.00,,,0.07,meteohub,2013-10-07 12:22:00,
2013-10-07 07:27:00,47.8,44.2,29.91,SW,218,5.0,7.0,87,0.00,,,0.07,meteohub,2013-10-07 12:27:00,
2013-10-07 07:32:00,48.2,44.6,29.91,SW,232,4.0,6.0,87,0.00,,,0.07,meteohub,2013-10-07 12:32:00,
2013-10-07 07:37:00,48.2,44.6,29.91,SW,232,4.0,7.0,87,0.00,,,0.07,meteohub,2013-10-07 12:37:00,
2013-10-07 07:42:00,48.9,44.6,29.91,North,-999,-999.0,7.0,85,0.00,,,0.07,meteohub,2013-10-07 12:42:00,
2013-10-07 07:47:00,48.7,44.1,29.92,West,259,1.0,4.0,84,0.00,,,0.07,meteohub,2013-10-07 12:47:00,
2013-10-07 07:52:00,48.7,44.8,29.92,West,267,2.0,5.0,86,0.00,,,0.07,meteohub,2013-10-07 12:52:00,
2013-10-07 07:57:00,48.7,44.4,29.92,NNW,333,0.0,5.0,85,0.00,,,0.07,meteohub,2013-10-07 12:57:00,
2013-10-07 08:02:00,48.0,43.7,29.92,WNW,296,1.0,9.0,85,0.00,,,0.07,meteohub,2013-10-07 13:02:00,
2013-10-07 08:07:00,47.8,43.9,29.93,SW,229,2.0,9.0,86,0.00,,,0.07,meteohub,2013-10-07 13:07:00,
2013-10-07 08:12:00,47.8,44.2,29.93,SW,221,5.0,9.0,87,0.00,,,0.07,meteohub,2013-10-07 13:12:00,
2013-10-07 08:17:00,48.6,44.8,29.94,SW,219,1.0,10.0,87,0.00,,,0.07,meteohub,2013-10-07 13:17:00,
2013-10-07 08:22:00,48.6,44.6,29.94,NW,322,4.0,10.0,86,0.00,,,0.07,meteohub,2013-10-07 13:22:00,
2013-10-07 08:27:00,48.9,45.1,29.94,SW,228,0.0,10.0,87,0.00,,,0.07,meteohub,2013-10-07 13:27:00,
2013-10-07 08:32:00,49.3,45.0,29.94,WSW,246,3.0,9.0,85,0.00,,,0.07,meteohub,2013-10-07 13:32:00,
2013-10-07 08:37:00,49.8,45.5,29.94,WNW,283,2.0,9.0,85,0.00,,,0.07,meteohub,2013-10-07 13:37:00,
2013-10-07 08:42:00,49.8,45.5,29.94,North,350,4.0,11.0,85,0.00,,,0.07,meteohub,2013-10-07 13:42:00,
2013-10-07 08:47:00,49.8,45.1,29.94,NNW,333,4.0,11.0,84,0.00,,,0.07,meteohub,2013-10-07 13:47:00,
2013-10-07 08:52:00,49.6,45.0,29.95,SW,230,6.0,11.0,84,0.00,,,0.07,meteohub,2013-10-07 13:52:00,
2013-10-07 08:57:00,50.0,45.3,29.95,NNW,328,5.0,11.0,84,0.00,,,0.07,meteohub,2013-10-07 13:57:00,
2013-10-07 09:02:00,50.4,46.0,29.95,NW,314,3.0,11.0,85,0.00,,,0.07,meteohub,2013-10-07 14:02:00,
2013-10-07 09:07:00,50.7,45.5,29.95,NW,325,5.0,10.0,82,0.00,,,0.07,meteohub,2013-10-07 14:07:00,
2013-10-07 09:12:00,51.6,46.0,29.95,SSW,208,4.0,10.0,81,0.00,,,0.07,meteohub,2013-10-07 14:12:00,
2013-10-07 09:17:00,52.3,46.8,29.96,WSW,257,6.0,10.0,81,0.00,,,0.07,meteohub,2013-10-07 14:17:00,
2013-10-07 09:22:00,52.9,47.3,29.96,WNW,290,0.0,9.0,81,0.00,,,0.07,meteohub,2013-10-07 14:22:00,
2013-10-07 09:27:00,53.2,46.9,29.96,SW,225,2.0,10.0,79,0.00,,,0.07,meteohub,2013-10-07 14:27:00,
2013-10-07 09:33:00,53.4,46.8,29.96,West,265,5.0,10.0,78,0.00,,,0.07,meteohub,2013-10-07 14:33:00,
2013-10-07 09:38:00,53.2,46.6,29.96,NW,314,13.0,13.0,78,0.00,,,0.07,meteohub,2013-10-07 14:38:00,
2013-10-07 09:43:00,52.9,46.6,29.97,WNW,283,7.0,14.0,79,0.00,,,0.07,meteohub,2013-10-07 14:43:00,
2013-10-07 09:48:00,52.7,46.4,29.97,SW,235,2.0,14.0,79,0.00,,,0.07,meteohub,2013-10-07 14:48:00,
2013-10-07 09:53:00,52.9,46.9,29.97,West,270,4.0,14.0,80,0.00,,,0.07,meteohub,2013-10-07 14:53:00,
2013-10-07 09:59:00,52.9,46.9,29.97,WNW,290,11.0,14.0,80,0.00,,,0.07,meteohub,2013-10-07 14:59:00,
2013-10-07 10:04:00,52.3,46.9,29.98,West,261,5.0,12.0,82,0.00,,,0.07,meteohub,2013-10-07 15:04:00,
2013-10-07 10:09:00,52.2,46.8,29.98,SW,217,2.0,12.0,82,0.00,,,0.07,meteohub,2013-10-07 15:09:00,
2013-10-07 10:14:00,51.6,46.6,29.98,NW,321,4.0,12.0,83,0.00,,,0.07,meteohub,2013-10-07 15:14:00,
2013-10-07 10:20:00,51.4,46.8,29.98,NNW,329,1.0,13.0,84,0.00,,,0.07,meteohub,2013-10-07 15:20:00,
2013-10-07 10:25:00,51.6,47.3,29.99,SW,217,1.0,15.0,85,0.00,,,0.07,meteohub,2013-10-07 15:25:00,
2013-10-07 10:30:00,51.6,47.3,29.99,SSW,203,1.0,15.0,85,0.00,,,0.07,meteohub,2013-10-07 15:30:00,
2013-10-07 10:35:00,51.8,47.5,29.99,West,281,4.0,12.0,85,0.00,,,0.07,meteohub,2013-10-07 15:35:00,
2013-10-07 10:40:00,52.2,47.8,29.99,WSW,257,0.0,12.0,85,0.00,,,0.07,meteohub,2013-10-07 15:40:00,
2013-10-07 10:46:00,52.5,48.2,29.99,WNW,298,2.0,12.0,85,0.00,,,0.07,meteohub,2013-10-07 15:46:00,
2013-10-07 10:51:00,52.9,48.2,29.99,WNW,292,3.0,10.0,84,0.00,,,0.07,meteohub,2013-10-07 15:51:00,
2013-10-07 10:56:00,52.9,48.2,29.99,WNW,282,1.0,11.0,84,0.00,,,0.07,meteohub,2013-10-07 15:56:00,
2013-10-07 11:01:00,53.1,48.4,29.99,WNW,295,4.0,11.0,84,0.00,,,0.07,meteohub,2013-10-07 16:01:00,
2013-10-07 11:06:00,53.1,48.4,29.99,SW,236,3.0,11.0,84,0.00,,,0.07,meteohub,2013-10-07 16:06:00,
2013-10-07 11:12:00,53.2,48.6,29.99,SW,234,4.0,10.0,84,0.00,,,0.07,meteohub,2013-10-07 16:12:00,
2013-10-07 11:17:00,53.4,48.7,29.99,SW,226,5.0,9.0,84,0.00,,,0.07,meteohub,2013-10-07 16:17:00,
2013-10-07 11:22:00,53.8,49.1,30.00,WSW,238,5.0,8.0,84,0.00,,,0.07,meteohub,2013-10-07 16:22:00,
2013-10-07 11:27:00,54.0,48.9,30.00,West,278,2.0,8.0,83,0.00,,,0.07,meteohub,2013-10-07 16:27:00,
2013-10-07 11:32:00,54.0,48.9,30.00,WNW,288,5.0,7.0,83,0.00,,,0.07,meteohub,2013-10-07 16:32:00,
2013-10-07 11:37:00,54.1,49.5,30.01,West,267,1.0,14.0,84,0.00,,,0.07,meteohub,2013-10-07 16:37:00,
2013-10-07 11:42:00,54.3,49.3,30.01,WNW,298,10.0,14.0,83,0.00,,,0.07,meteohub,2013-10-07 16:42:00,
2013-10-07 11:47:00,54.7,49.3,30.01,NW,315,2.0,14.0,82,0.00,,,0.07,meteohub,2013-10-07 16:47:00,
2013-10-07 11:52:00,55.0,49.3,30.01,WNW,300,7.0,13.0,81,0.00,,,0.07,meteohub,2013-10-07 16:52:00,
2013-10-07 11:57:00,55.4,48.9,30.01,SW,222,1.0,13.0,79,0.00,,,0.07,meteohub,2013-10-07 16:57:00,
2013-10-07 12:02:00,55.8,48.9,30.01,WSW,248,6.0,14.0,78,0.00,,,0.07,meteohub,2013-10-07 17:02:00,
2013-10-07 12:07:00,56.1,48.9,30.00,WNW,294,8.0,14.0,77,0.00,,,0.07,meteohub,2013-10-07 17:07:00,
2013-10-07 12:12:00,56.3,49.1,30.00,SW,232,1.0,16.0,77,0.00,,,0.07,meteohub,2013-10-07 17:12:00,
2013-10-07 12:17:00,56.8,49.3,30.00,West,281,2.0,16.0,76,0.00,,,0.07,meteohub,2013-10-07 17:17:00,
2013-10-07 12:22:00,57.4,49.1,30.01,NNW,342,6.0,16.0,74,0.00,,,0.07,meteohub,2013-10-07 17:22:00,
2013-10-07 12:28:00,57.7,49.1,30.01,SSW,207,6.0,13.0,73,0.00,,,0.07,meteohub,2013-10-07 17:28:00,
2013-10-07 12:33:00,58.5,49.5,30.01,West,263,4.0,13.0,72,0.00,,,0.07,meteohub,2013-10-07 17:33:00,
2013-10-07 12:38:00,58.5,48.7,30.00,North,0,5.0,13.0,70,0.00,,,0.07,meteohub,2013-10-07 17:38:00,
2013-10-07 12:43:00,58.8,49.5,30.00,WNW,296,3.0,14.0,71,0.00,,,0.07,meteohub,2013-10-07 17:43:00,
2013-10-07 12:49:00,59.4,49.1,30.00,West,271,7.0,15.0,69,0.00,,,0.07,meteohub,2013-10-07 17:49:00,
2013-10-07 12:54:00,59.5,49.3,30.00,NW,313,2.0,15.0,69,0.00,,,0.07,meteohub,2013-10-07 17:54:00,
2013-10-07 12:59:00,59.5,48.9,30.00,West,279,9.0,14.0,68,0.00,,,0.07,meteohub,2013-10-07 17:59:00,
2013-10-07 13:04:00,60.1,49.5,30.00,West,265,11.0,14.0,68,0.00,,,0.07,meteohub,2013-10-07 18:04:00,
2013-10-07 13:11:00,60.8,49.5,30.00,SW,227,5.0,14.0,66,0.00,,,0.07,meteohub,2013-10-07 18:11:00,
2013-10-07 13:17:00,61.3,49.5,29.99,NW,322,4.0,14.0,65,0.00,,,0.07,meteohub,2013-10-07 18:17:00,
2013-10-07 13:22:00,61.2,48.4,29.99,NNW,337,0.0,14.0,63,0.00,,,0.07,meteohub,2013-10-07 18:22:00,
2013-10-07 13:27:00,61.3,48.6,29.99,NW,311,5.0,11.0,63,0.00,,,0.07,meteohub,2013-10-07 18:27:00,
2013-10-07 13:32:00,62.2,48.6,29.99,WNW,302,4.0,13.0,61,0.00,,,0.07,meteohub,2013-10-07 18:32:00,
2013-10-07 13:37:00,62.6,48.9,29.99,North,0,6.0,13.0,61,0.00,,,0.07,meteohub,2013-10-07 18:37:00,
2013-10-07 13:42:00,62.4,47.5,29.99,NW,306,9.0,11.0,58,0.00,,,0.07,meteohub,2013-10-07 18:42:00,
2013-10-07 13:47:00,62.8,48.2,29.99,WNW,298,11.0,13.0,59,0.00,,,0.07,meteohub,2013-10-07 18:47:00,
2013-10-07 13:52:00,63.1,48.2,29.99,WNW,301,6.0,13.0,58,0.00,,,0.07,meteohub,2013-10-07 18:52:00,
2013-10-07 13:57:00,63.5,48.0,29.99,SW,233,4.0,11.0,57,0.00,,,0.07,meteohub,2013-10-07 18:57:00,
2013-10-07 14:02:00,64.2,47.7,29.99,NW,309,3.0,14.0,55,0.00,,,0.07,meteohub,2013-10-07 19:02:00,
2013-10-07 14:08:00,64.8,48.7,29.99,WNW,284,0.0,14.0,56,0.00,,,0.07,meteohub,2013-10-07 19:08:00,
2013-10-07 14:13:00,64.9,47.8,29.99,NW,319,9.0,14.0,54,0.00,,,0.07,meteohub,2013-10-07 19:13:00,
2013-10-07 14:18:00,65.1,48.0,29.99,NW,312,1.0,13.0,54,0.00,,,0.07,meteohub,2013-10-07 19:18:00,
2013-10-07 14:23:00,65.5,47.8,29.99,NNW,333,6.0,13.0,53,0.00,,,0.07,meteohub,2013-10-07 19:23:00,
2013-10-07 14:28:00,65.7,47.5,29.99,NNW,328,6.0,13.0,52,0.00,,,0.07,meteohub,2013-10-07 19:28:00,
2013-10-07 14:33:00,66.2,46.4,29.99,WNW,299,2.0,13.0,49,0.00,,,0.07,meteohub,2013-10-07 19:33:00,
2013-10-07 14:38:00,66.0,45.7,29.99,NW,321,6.0,12.0,48,0.00,,,0.07,meteohub,2013-10-07 19:38:00,
2013-10-07 14:43:00,66.0,45.7,29.99,NW,312,4.0,14.0,48,0.00,,,0.07,meteohub,2013-10-07 19:43:00,
2013-10-07 14:49:00,66.2,44.8,29.99,NW,317,7.0,16.0,46,0.00,,,0.07,meteohub,2013-10-07 19:49:00,
2013-10-07 14:54:00,66.4,45.0,29.99,WNW,302,7.0,16.0,46,0.00,,,0.07,meteohub,2013-10-07 19:54:00,
2013-10-07 14:59:00,66.7,45.9,29.99,WNW,301,10.0,16.0,47,0.00,,,0.07,meteohub,2013-10-07 19:59:00,
2013-10-07 15:04:00,66.6,45.7,29.99,NNW,346,4.0,13.0,47,0.00,,,0.07,meteohub,2013-10-07 20:04:00,
2013-10-07 15:09:00,66.7,45.9,29.99,NW,317,13.0,15.0,47,0.00,,,0.07,meteohub,2013-10-07 20:09:00,
2013-10-07 15:14:00,66.7,45.9,30.00,West,279,2.0,15.0,47,0.00,,,0.07,meteohub,2013-10-07 20:14:00,
2013-10-07 15:19:00,67.5,46.0,29.99,NW,319,8.0,16.0,46,0.00,,,0.07,meteohub,2013-10-07 20:19:00,
2013-10-07 15:24:00,67.5,46.6,30.00,NNW,336,6.0,16.0,47,0.00,,,0.07,meteohub,2013-10-07 20:24:00,
2013-10-07 15:29:00,67.6,45.5,30.00,NW,321,1.0,16.0,45,0.00,,,0.07,meteohub,2013-10-07 20:29:00,
2013-10-07 15:34:00,67.8,46.2,29.99,NNW,344,0.0,11.0,46,0.00,,,0.07,meteohub,2013-10-07 20:34:00,
2013-10-07 15:39:00,68.2,46.0,29.99,WNW,300,11.0,11.0,45,0.00,,,0.07,meteohub,2013-10-07 20:39:00,
2013-10-07 15:45:00,67.8,45.7,29.99,SW,234,3.0,11.0,45,0.00,,,0.07,meteohub,2013-10-07 20:45:00,
2013-10-07 15:50:00,68.0,45.3,29.99,NNE,14,5.0,12.0,44,0.00,,,0.07,meteohub,2013-10-07 20:50:00,
2013-10-07 15:55:00,68.0,45.3,30.00,NNW,343,7.0,12.0,44,0.00,,,0.07,meteohub,2013-10-07 20:55:00,
2013-10-07 16:00:00,68.0,44.6,29.99,NW,305,9.0,15.0,43,0.00,,,0.07,meteohub,2013-10-07 21:00:00,
2013-10-07 16:05:00,67.8,45.1,30.00,NW,313,10.0,15.0,44,0.00,,,0.07,meteohub,2013-10-07 21:05:00,
2013-10-07 16:10:00,67.8,45.7,29.99,North,5,8.0,13.0,45,0.00,,,0.07,meteohub,2013-10-07 21:10:00,
2013-10-07 16:15:00,68.0,45.3,30.00,NNW,331,5.0,13.0,44,0.00,,,0.07,meteohub,2013-10-07 21:15:00,
2013-10-07 16:20:00,68.2,44.8,30.00,NW,326,5.0,12.0,43,0.00,,,0.07,meteohub,2013-10-07 21:20:00,
2013-10-07 16:25:00,68.4,45.7,30.00,NW,323,4.0,12.0,44,0.00,,,0.07,meteohub,2013-10-07 21:25:00,
2013-10-07 16:30:00,68.4,45.0,30.00,NW,317,6.0,10.0,43,0.00,,,0.07,meteohub,2013-10-07 21:30:00,
2013-10-07 16:35:00,68.4,45.7,30.00,NW,326,1.0,11.0,44,0.00,,,0.07,meteohub,2013-10-07 21:35:00,
2013-10-07 16:40:00,68.2,44.8,30.00,NW,319,8.0,13.0,43,0.00,,,0.07,meteohub,2013-10-07 21:40:00,
2013-10-07 16:45:00,68.0,44.6,30.00,NNW,338,4.0,13.0,43,0.00,,,0.07,meteohub,2013-10-07 21:45:00,
2013-10-07 16:50:00,68.0,44.6,30.00,NNW,337,1.0,13.0,43,0.00,,,0.07,meteohub,2013-10-07 21:50:00,
2013-10-07 16:55:00,68.2,45.5,30.00,NNW,338,5.0,12.0,44,0.00,,,0.07,meteohub,2013-10-07 21:55:00,
2013-10-07 17:01:00,68.0,45.3,30.00,NW,323,8.0,11.0,44,0.00,,,0.07,meteohub,2013-10-07 22:01:00,
2013-10-07 17:06:00,67.6,45.0,30.00,NW,313,6.0,11.0,44,0.00,,,0.07,meteohub,2013-10-07 22:06:00,
2013-10-07 17:11:00,67.5,44.8,30.00,NW,323,5.0,12.0,44,0.00,,,0.07,meteohub,2013-10-07 22:11:00,
2013-10-07 17:16:00,67.5,44.8,30.00,NNW,340,2.0,12.0,44,0.00,,,0.07,meteohub,2013-10-07 22:16:00,
2013-10-07 17:21:00,67.6,45.0,30.01,NNW,346,4.0,12.0,44,0.00,,,0.07,meteohub,2013-10-07 22:21:00,
2013-10-07 17:26:00,67.6,45.5,30.01,NW,319,2.0,10.0,45,0.00,,,0.07,meteohub,2013-10-07 22:26:00,
2013-10-07 17:31:00,67.6,45.5,30.01,NW,309,0.0,9.0,45,0.00,,,0.07,meteohub,2013-10-07 22:31:00,
2013-10-07 17:36:00,67.6,45.5,30.01,NW,320,1.0,8.0,45,0.00,,,0.07,meteohub,2013-10-07 22:36:00,
2013-10-07 17:41:00,67.3,45.9,30.01,NNW,343,5.0,8.0,46,0.00,,,0.07,meteohub,2013-10-07 22:41:00,
2013-10-07 17:46:00,66.9,46.0,30.01,NW,317,2.0,7.0,47,0.00,,,0.07,meteohub,2013-10-07 22:46:00,
2013-10-07 17:51:00,66.6,45.7,30.01,NW,310,0.0,7.0,47,0.00,,,0.07,meteohub,2013-10-07 22:51:00,
2013-10-07 17:56:00,66.4,46.0,30.01,NW,311,1.0,7.0,48,0.00,,,0.07,meteohub,2013-10-07 22:56:00,
2013-10-07 18:01:00,65.8,46.2,30.01,NW,310,0.0,5.0,49,0.00,,,0.07,meteohub,2013-10-07 23:01:00,
2013-10-07 18:06:00,65.7,46.0,30.01,NW,310,0.0,4.0,49,0.00,,,0.07,meteohub,2013-10-07 23:06:00,
2013-10-07 18:11:00,65.3,46.2,30.02,NW,310,0.0,4.0,50,0.00,,,0.07,meteohub,2013-10-07 23:11:00,
2013-10-07 18:16:00,64.9,46.4,30.02,NW,310,0.0,1.0,51,0.00,,,0.07,meteohub,2013-10-07 23:16:00,
2013-10-07 18:22:00,64.8,46.2,30.02,NW,310,0.0,1.0,51,0.00,,,0.07,meteohub,2013-10-07 23:22:00,
2013-10-07 18:27:00,64.2,46.8,30.02,NW,310,0.0,1.0,53,0.00,,,0.07,meteohub,2013-10-07 23:27:00,
2013-10-07 18:32:00,63.9,48.4,30.03,NW,310,0.0,0.0,57,0.00,,,0.07,meteohub,2013-10-07 23:32:00,
2013-10-07 18:37:00,63.0,48.0,30.03,NW,310,0.0,0.0,58,0.00,,,0.07,meteohub,2013-10-07 23:37:00,
2013-10-07 18:42:00,62.2,49.1,30.03,NW,310,0.0,0.0,62,0.00,,,0.07,meteohub,2013-10-07 23:42:00,
2013-10-07 18:47:00,61.5,49.6,30.03,NW,310,0.0,0.0,65,0.00,,,0.07,meteohub,2013-10-07 23:47:00,
2013-10-07 18:52:00,60.6,49.6,30.03,NW,310,0.0,0.0,67,0.00,,,0.07,meteohub,2013-10-07 23:52:00,
2013-10-07 18:57:00,59.9,49.6,30.03,NW,310,0.0,0.0,69,0.00,,,0.07,meteohub,2013-10-07 23:57:00,
2013-10-07 19:02:00,59.4,50.0,30.04,NW,310,0.0,0.0,71,0.00,,,0.07,meteohub,2013-10-08 00:02:00,
2013-10-07 19:07:00,58.6,50.0,30.04,NW,310,0.0,0.0,73,0.00,,,0.07,meteohub,2013-10-08 00:07:00,
2013-10-07 19:12:00,57.9,48.9,30.04,NW,310,0.0,0.0,72,0.00,,,0.07,meteohub,2013-10-08 00:12:00,
2013-10-07 19:17:00,57.6,48.9,30.04,NW,310,0.0,0.0,73,0.00,,,0.07,meteohub,2013-10-08 00:17:00,
2013-10-07 19:22:00,57.2,48.9,30.04,NW,310,0.0,0.0,74,0.00,,,0.07,meteohub,2013-10-08 00:22:00,
2013-10-07 19:27:00,56.8,48.9,30.05,NW,310,0.0,0.0,75,0.00,,,0.07,meteohub,2013-10-08 00:27:00,
2013-10-07 19:32:00,56.7,49.1,30.05,NW,310,0.0,0.0,76,0.00,,,0.07,meteohub,2013-10-08 00:32:00,
2013-10-07 19:37:00,56.1,48.9,30.05,NW,310,0.0,0.0,77,0.00,,,0.07,meteohub,2013-10-08 00:37:00,
2013-10-07 19:42:00,55.9,49.1,30.05,NW,309,1.0,0.0,78,0.00,,,0.07,meteohub,2013-10-08 00:42:00,
2013-10-07 19:47:00,55.9,48.9,30.05,WSW,239,0.0,2.0,77,0.00,,,0.07,meteohub,2013-10-08 00:47:00,
2013-10-07 19:52:00,55.9,48.9,30.06,WSW,239,0.0,2.0,77,0.00,,,0.07,meteohub,2013-10-08 00:52:00,
2013-10-07 19:57:00,55.9,49.1,30.06,WSW,239,0.0,2.0,78,0.00,,,0.07,meteohub,2013-10-08 00:57:00,
2013-10-07 20:02:00,55.9,49.1,30.06,WSW,239,0.0,1.0,78,0.00,,,0.07,meteohub,2013-10-08 01:02:00,
2013-10-07 20:07:00,55.6,49.5,30.06,WSW,239,0.0,0.0,80,0.00,,,0.07,meteohub,2013-10-08 01:07:00,
2013-10-07 20:12:00,55.2,49.1,30.06,WSW,239,0.0,0.0,80,0.00,,,0.07,meteohub,2013-10-08 01:12:00,
2013-10-07 20:17:00,55.0,49.3,30.06,WSW,239,0.0,0.0,81,0.00,,,0.07,meteohub,2013-10-08 01:17:00,
2013-10-07 20:22:00,54.9,49.5,30.06,WSW,239,0.0,0.0,82,0.00,,,0.07,meteohub,2013-10-08 01:22:00,
2013-10-07 20:27:00,54.7,49.3,30.07,WSW,239,0.0,0.0,82,0.00,,,0.07,meteohub,2013-10-08 01:27:00,
2013-10-07 20:32:00,54.3,49.3,30.07,WSW,239,0.0,0.0,83,0.00,,,0.07,meteohub,2013-10-08 01:32:00,
2013-10-07 20:37:00,54.1,49.1,30.07,WSW,239,0.0,0.0,83,0.00,,,0.07,meteohub,2013-10-08 01:37:00,
2013-10-07 20:42:00,54.0,49.3,30.07,WSW,239,0.0,0.0,84,0.00,,,0.07,meteohub,2013-10-08 01:42:00,
2013-10-07 20:47:00,53.8,49.1,30.07,WSW,239,0.0,0.0,84,0.00,,,0.07,meteohub,2013-10-08 01:47:00,
2013-10-07 20:52:00,53.6,49.3,30.08,WSW,239,0.0,0.0,85,0.00,,,0.07,meteohub,2013-10-08 01:52:00,
2013-10-07 20:57:00,53.4,49.1,30.08,WSW,239,0.0,0.0,85,0.00,,,0.07,meteohub,2013-10-08 01:57:00,
2013-10-07 21:02:00,53.4,49.1,30.08,WSW,239,0.0,0.0,85,0.00,,,0.07,meteohub,2013-10-08 02:02:00,
2013-10-07 21:07:00,53.2,48.9,30.08,WSW,239,0.0,0.0,85,0.00,,,0.07,meteohub,2013-10-08 02:07:00,
2013-10-07 21:12:00,52.9,48.6,30.09,WSW,239,0.0,0.0,85,0.00,,,0.07,meteohub,2013-10-08 02:12:00,
2013-10-07 21:17:00,52.5,48.2,30.09,WSW,239,0.0,0.0,85,0.00,,,0.07,meteohub,2013-10-08 02:17:00,
2013-10-07 21:22:00,52.5,48.7,30.09,WSW,239,0.0,0.0,87,0.00,,,0.07,meteohub,2013-10-08 02:22:00,
2013-10-07 21:27:00,52.3,48.6,30.09,WSW,239,0.0,3.0,87,0.00,,,0.07,meteohub,2013-10-08 02:27:00,
2013-10-07 21:32:00,52.3,48.6,30.09,WSW,239,0.0,3.0,87,0.00,,,0.07,meteohub,2013-10-08 02:32:00,
2013-10-07 21:37:00,52.3,48.6,30.09,WSW,239,0.0,2.0,87,0.00,,,0.07,meteohub,2013-10-08 02:37:00,
2013-10-07 21:42:00,52.2,48.4,30.09,WSW,239,0.0,0.0,87,0.00,,,0.07,meteohub,2013-10-08 02:42:00,
2013-10-07 21:47:00,52.0,48.2,30.09,WSW,239,0.0,0.0,87,0.00,,,0.07,meteohub,2013-10-08 02:47:00,
2013-10-07 21:52:00,51.6,47.8,30.09,WSW,239,0.0,0.0,87,0.00,,,0.07,meteohub,2013-10-08 02:52:00,
2013-10-07 21:57:00,51.6,48.2,30.09,WSW,239,0.0,0.0,88,0.00,,,0.07,meteohub,2013-10-08 02:57:00,
2013-10-07 22:02:00,51.3,47.8,30.10,WSW,239,0.0,0.0,88,0.00,,,0.07,meteohub,2013-10-08 03:02:00,
2013-10-07 22:07:00,51.1,47.7,30.10,WSW,239,0.0,0.0,88,0.00,,,0.07,meteohub,2013-10-08 03:07:00,
2013-10-07 22:12:00,51.1,48.0,30.10,WSW,239,0.0,0.0,89,0.00,,,0.07,meteohub,2013-10-08 03:12:00,
2013-10-07 22:17:00,51.1,48.0,30.10,WSW,239,0.0,0.0,89,0.00,,,0.07,meteohub,2013-10-08 03:17:00,
2013-10-07 22:22:00,51.1,48.2,30.10,WSW,239,0.0,0.0,90,0.00,,,0.07,meteohub,2013-10-08 03:22:00,
2013-10-07 22:27:00,51.1,48.2,30.10,WSW,239,0.0,0.0,90,0.00,,,0.07,meteohub,2013-10-08 03:27:00,
2013-10-07 22:32:00,51.1,48.2,30.10,WSW,239,0.0,0.0,90,0.00,,,0.07,meteohub,2013-10-08 03:32:00,
2013-10-07 22:37:00,51.1,48.2,30.10,WSW,239,0.0,0.0,90,0.00,,,0.07,meteohub,2013-10-08 03:37:00,
2013-10-07 22:42:00,50.9,48.0,30.10,WSW,239,0.0,0.0,90,0.00,,,0.07,meteohub,2013-10-08 03:42:00,
2013-10-07 22:47:00,50.7,47.7,30.10,WSW,239,0.0,0.0,89,0.00,,,0.07,meteohub,2013-10-08 03:47:00,
2013-10-07 22:52:00,50.5,47.7,30.10,WSW,239,0.0,0.0,90,0.00,,,0.07,meteohub,2013-10-08 03:52:00,
2013-10-07 22:57:00,50.5,47.7,30.11,WSW,239,0.0,0.0,90,0.00,,,0.07,meteohub,2013-10-08 03:57:00,
2013-10-07 23:01:00,50.4,47.5,30.11,WSW,239,0.0,0.0,90,0.00,,,0.07,meteohub,2013-10-08 04:01:00,
2013-10-07 23:02:00,50.4,47.5,30.11,WSW,239,0.0,0.0,90,0.00,,,0.07,meteohub,2013-10-08 04:02:00,
2013-10-07 23:03:00,50.4,47.5,30.11,WSW,239,0.0,0.0,90,0.00,,,0.07,meteohub,2013-10-08 04:03:00,
2013-10-07 23:04:00,50.4,47.5,30.11,WSW,239,0.0,0.0,90,0.00,,,0.07,meteohub,2013-10-08 04:04:00,
2013-10-07 23:05:00,50.4,47.5,30.11,WSW,239,0.0,0.0,90,0.00,,,0.07,meteohub,2013-10-08 04:05:00,
2013-10-07 23:10:00,49.8,46.9,30.11,WSW,239,0.0,0.0,90,0.00,,,0.07,meteohub,2013-10-08 04:10:00,
2013-10-07 23:15:00,49.6,46.8,30.11,WSW,239,0.0,0.0,90,0.00,,,0.07,meteohub,2013-10-08 04:15:00,
2013-10-07 23:20:00,49.8,47.3,30.11,WSW,239,0.0,0.0,91,0.00,,,0.07,meteohub,2013-10-08 04:20:00,
2013-10-07 23:25:00,50.0,47.5,30.11,WSW,239,0.0,0.0,91,0.00,,,0.07,meteohub,2013-10-08 04:25:00,
2013-10-07 23:30:00,50.2,47.7,30.11,WSW,239,0.0,0.0,91,0.00,,,0.07,meteohub,2013-10-08 04:30:00,
2013-10-07 23:35:00,50.4,47.8,30.12,WSW,239,0.0,0.0,91,0.00,,,0.07,meteohub,2013-10-08 04:35:00,
2013-10-07 23:40:00,50.2,47.3,30.11,WSW,239,0.0,0.0,90,0.00,,,0.07,meteohub,2013-10-08 04:40:00,
2013-10-07 23:45:00,50.2,47.3,30.11,WSW,239,0.0,0.0,90,0.00,,,0.07,meteohub,2013-10-08 04:45:00,
2013-10-07 23:50:00,49.8,46.9,30.12,WSW,239,0.0,0.0,90,0.00,,,0.07,meteohub,2013-10-08 04:50:00,
2013-10-07 23:55:00,49.8,47.3,30.12,WSW,239,0.0,0.0,91,0.00,,,0.07,meteohub,2013-10-08 04:55:00,